Terminal Aerodrome Forecast
Issued by NWS Cleveland, OH

Home | Current Version | Previous Version | Graphics & Text | Print | Product List | Glossary On
Versions: 1 2 3 4 5 6 7 8 9 10 11 12 13 14 15 16 17 18
000
FTUS41 KCLE 241700
TAFCAK
TAF
KCAK 241735Z 2418/2518 30012G18KT P6SM SCT040
     FM250000 36003KT P6SM SCT120 BKN200
     FM250800 09004KT P6SM SCT040 OVC100
     FM251300 09012G18KT P6SM SCT025 OVC040=

USA.gov is the U.S. government's official web portal to all federal, state and local government web resources and services.